Time;durP1;ratioP1;P1;durP2;ratioP2;P2;SDS_P1;SDS_P2;PMS_P1;PMS_P2;Temp;Humidity;BMP_temperature;BMP_pressure;BME280_temperature;BME280_humidity;BME280_pressure;Samples;Min_cycle;Max_cycle;Signal;HPM_P1;HPM_P2
2023/10/02 00:01:56;;;;;;;14.43;5.68;;;14.50;61.50;;;;;;5064886;28;20054;-61
2023/10/02 00:04:24;;;;;;;16.60;6.22;;;14.50;61.50;;;;;;5072615;28;20025;-62
2023/10/02 00:07:05;;;;;;;12.77;6.07;;;14.50;61.60;;;;;;5064958;28;20487;-61
2023/10/02 00:09:41;;;;;;;17.15;6.68;;;14.50;61.60;;;;;;5069332;28;20396;-61
2023/10/02 00:12:13;;;;;;;12.45;6.03;;;14.40;62.10;;;;;;5061919;28;20083;-61
2023/10/02 00:14:41;;;;;;;12.93;6.07;;;14.40;61.70;;;;;;5062314;28;20020;-63
2023/10/02 00:17:14;;;;;;;15.00;7.10;;;14.40;61.90;;;;;;5062242;28;20482;-62
2023/10/02 00:19:45;;;;;;;13.65;6.80;;;14.40;62.00;;;;;;5060492;28;20387;-61
2023/10/02 00:25:04;;;;;;;15.70;6.15;;;14.30;62.20;;;;;;5063853;28;20502;-62
2023/10/02 00:27:30;;;;;;;13.35;6.13;;;14.30;62.00;;;;;;5060027;28;20033;-61
2023/10/02 00:29:58;;;;;;;16.23;6.60;;;14.30;62.00;;;;;;5069635;28;20764;-60
2023/10/02 00:32:35;;;;;;;11.98;5.88;;;14.30;62.30;;;;;;5065580;28;20036;-60
2023/10/02 00:35:03;;;;;;;12.93;5.82;;;14.20;62.30;;;;;;5062960;28;20039;-61
2023/10/02 00:37:51;;;;;;;13.45;6.45;;;14.20;62.50;;;;;;5064400;28;20028;-62
2023/10/02 00:40:21;;;;;;;14.95;6.85;;;14.20;62.40;;;;;;5062697;28;20116;-61
2023/10/02 00:45:59;;;;;;;12.63;6.22;;;14.20;63.70;;;;;;5059227;28;20031;-61
2023/10/02 00:48:28;;;;;;;17.13;6.05;;;14.20;62.60;;;;;;5064710;28;20090;-64
2023/10/02 00:50:59;;;;;;;14.75;6.72;;;14.10;62.80;;;;;;5064658;28;20047;-60
2023/10/02 00:53:41;;;;;;;15.20;6.95;;;14.10;63.00;;;;;;5066849;28;20059;-60
2023/10/02 00:56:19;;;;;;;13.50;5.45;;;14.10;63.00;;;;;;5066187;28;20043;-60
2023/10/02 00:58:58;;;;;;;13.25;6.45;;;14.10;62.80;;;;;;5058575;28;20037;-60
2023/10/02 01:01:31;;;;;;;15.25;6.47;;;14.10;63.10;;;;;;5063031;28;20032;-61
2023/10/02 01:04:10;;;;;;;14.90;5.85;;;14.00;63.10;;;;;;5059160;28;20016;-61
2023/10/02 01:06:54;;;;;;;12.05;5.88;;;14.00;63.00;;;;;;5068380;28;20032;-61
2023/10/02 01:09:22;;;;;;;11.88;5.78;;;14.00;62.70;;;;;;5062444;28;20032;-61
2023/10/02 01:11:48;;;;;;;17.63;6.00;;;14.00;62.40;;;;;;5061510;28;20356;-61
2023/10/02 01:14:38;;;;;;;14.02;6.28;;;13.90;62.40;;;;;;5060440;28;20047;-60
2023/10/02 01:17:01;;;;;;;12.23;6.00;;;13.90;62.60;;;;;;5068491;28;20475;-61
2023/10/02 01:19:52;;;;;;;14.10;6.20;;;13.90;62.90;;;;;;5056732;28;20037;-61
2023/10/02 01:22:26;;;;;;;18.45;6.75;;;13.80;63.40;;;;;;5059597;28;20032;-61
2023/10/02 01:25:12;;;;;;;13.13;6.00;;;13.80;63.30;;;;;;5059432;28;20066;-61
2023/10/02 01:27:41;;;;;;;16.20;6.68;;;13.80;63.60;;;;;;5062053;28;20578;-60
2023/10/02 01:30:17;;;;;;;14.20;6.10;;;13.80;63.10;;;;;;5060057;28;20028;-60
2023/10/02 01:35:49;;;;;;;14.70;5.95;;;13.70;63.90;;;;;;5064544;28;20443;-62
2023/10/02 01:38:29;;;;;;;15.80;6.32;;;13.70;63.00;;;;;;5061936;28;20064;-62
2023/10/02 01:41:06;;;;;;;14.98;6.13;;;13.70;63.70;;;;;;5062384;28;20028;-62
2023/10/02 01:43:44;;;;;;;13.63;6.50;;;13.70;63.20;;;;;;5062161;28;20459;-62
2023/10/02 01:46:17;;;;;;;13.88;6.15;;;13.60;63.80;;;;;;4978834;28;20052;-61
2023/10/02 01:48:44;;;;;;;14.63;6.25;;;13.70;63.70;;;;;;5056651;28;20048;-60
2023/10/02 01:51:20;;;;;;;14.10;6.43;;;13.60;63.50;;;;;;5065989;28;20027;-60
2023/10/02 01:53:59;;;;;;;16.58;6.50;;;13.60;63.60;;;;;;5066317;28;20028;-60
2023/10/02 01:56:27;;;;;;;12.07;6.28;;;13.60;64.10;;;;;;5054708;28;20383;-60
2023/10/02 01:58:54;;;;;;;16.02;6.40;;;13.60;63.60;;;;;;5058939;28;20024;-61
2023/10/02 02:01:21;;;;;;;12.25;5.97;;;13.50;63.50;;;;;;5058565;28;20032;-62
2023/10/02 02:03:55;;;;;;;14.02;6.45;;;13.50;63.40;;;;;;5059682;28;20024;-62
2023/10/02 02:06:22;;;;;;;13.07;6.47;;;13.50;63.50;;;;;;5062749;28;20506;-60
2023/10/02 02:08:53;;;;;;;12.55;5.85;;;13.50;63.50;;;;;;5068653;28;20087;-62
2023/10/02 02:11:23;;;;;;;14.05;6.20;;;13.50;63.70;;;;;;5063712;28;20040;-60
2023/10/02 02:13:51;;;;;;;14.43;6.13;;;13.50;64.10;;;;;;5063138;28;20110;-61
2023/10/02 02:16:22;;;;;;;14.25;6.13;;;13.40;63.80;;;;;;5065900;28;20025;-61
2023/10/02 02:18:53;;;;;;;11.07;5.85;;;13.40;63.80;;;;;;5064171;28;20485;-61
2023/10/02 02:21:20;;;;;;;13.80;5.28;;;13.40;63.80;;;;;;5063012;28;20068;-60
2023/10/02 02:23:48;;;;;;;15.77;6.35;;;13.40;63.80;;;;;;5068219;28;20051;-61
2023/10/02 02:26:21;;;;;;;14.35;6.35;;;13.30;63.90;;;;;;5066096;28;20047;-61
2023/10/02 02:28:51;;;;;;;13.85;5.65;;;13.30;64.10;;;;;;5061146;28;20032;-60
2023/10/02 02:31:30;;;;;;;11.95;6.25;;;13.30;64.10;;;;;;5069729;28;20031;-60
2023/10/02 02:34:01;;;;;;;12.20;5.40;;;13.30;64.00;;;;;;5069055;28;20038;-60
2023/10/02 02:36:28;;;;;;;15.85;6.60;;;13.30;63.90;;;;;;5063299;28;20111;-61
2023/10/02 02:39:16;;;;;;;12.45;5.68;;;13.20;64.00;;;;;;5065204;28;20025;-61
2023/10/02 02:41:44;;;;;;;13.43;6.18;;;13.20;64.30;;;;;;5064299;28;20029;-61
2023/10/02 02:44:36;;;;;;;13.77;6.03;;;13.20;64.00;;;;;;5073169;28;20021;-61
2023/10/02 02:46:56;;;;;;;11.00;5.68;;;13.20;64.20;;;;;;5066910;28;20473;-62
2023/10/02 02:49:29;;;;;;;13.88;6.40;;;13.20;64.10;;;;;;5069141;28;20032;-60
2023/10/02 02:51:58;;;;;;;16.25;6.25;;;13.20;64.30;;;;;;5062769;28;20032;-61
2023/10/02 02:54:25;;;;;;;15.25;6.28;;;13.20;64.20;;;;;;5068747;28;20028;-61
2023/10/02 02:56:58;;;;;;;13.18;6.03;;;13.20;64.40;;;;;;5069845;28;20052;-61
2023/10/02 02:59:27;;;;;;;15.43;5.75;;;13.10;64.60;;;;;;5061591;28;20102;-61
2023/10/02 03:02:09;;;;;;;12.18;6.40;;;13.10;64.70;;;;;;5064156;28;20017;-61
2023/10/02 03:04:39;;;;;;;14.35;6.53;;;13.10;64.40;;;;;;5064780;28;20388;-59
2023/10/02 03:10:09;;;;;;;17.40;6.20;;;13.10;64.50;;;;;;5044563;28;20056;-60
2023/10/02 03:12:34;;;;;;;11.90;5.90;;;13.10;64.50;;;;;;5045439;28;20047;-60
2023/10/02 03:15:00;;;;;;;14.18;6.18;;;13.00;64.60;;;;;;5044685;28;20029;-61
2023/10/02 03:17:29;;;;;;;14.43;6.03;;;13.00;64.60;;;;;;5045242;28;20083;-61
2023/10/02 03:19:58;;;;;;;12.93;6.30;;;13.00;64.60;;;;;;5044628;28;20045;-62
2023/10/02 03:22:24;;;;;;;16.33;5.75;;;13.00;64.70;;;;;;5047040;28;20107;-60
2023/10/02 03:24:53;;;;;;;14.45;6.55;;;13.00;64.60;;;;;;5046834;28;20112;-60
2023/10/02 03:27:21;;;;;;;12.82;5.88;;;12.90;64.60;;;;;;5030402;28;20041;-61
2023/10/02 03:29:50;;;;;;;12.35;6.03;;;12.90;64.50;;;;;;5044138;28;20064;-60
2023/10/02 03:32:15;;;;;;;12.13;5.63;;;12.90;64.50;;;;;;5046958;28;20041;-60
2023/10/02 03:34:48;;;;;;;13.65;6.45;;;12.90;64.50;;;;;;5050103;28;20064;-60
2023/10/02 03:37:15;;;;;;;13.93;5.75;;;12.80;64.60;;;;;;5044425;28;20048;-61
2023/10/02 03:39:55;;;;;;;13.20;6.28;;;12.80;64.60;;;;;;5060519;28;20119;-61
2023/10/02 03:42:25;;;;;;;15.23;6.05;;;12.80;64.60;;;;;;5041120;28;20027;-61
2023/10/02 03:44:56;;;;;;;12.48;5.78;;;12.80;64.50;;;;;;4952504;28;20962;-62
2023/10/02 03:47:22;;;;;;;11.40;5.80;;;12.80;64.70;;;;;;5067614;28;20028;-60
2023/10/02 03:49:49;;;;;;;13.05;5.88;;;12.80;64.60;;;;;;5066814;28;20062;-60
2023/10/02 03:52:17;;;;;;;13.82;6.13;;;12.80;64.60;;;;;;5067123;28;20036;-61
2023/10/02 03:54:44;;;;;;;18.08;6.15;;;12.70;64.60;;;;;;5061068;28;20048;-61
2023/10/02 03:57:37;;;;;;;12.98;6.13;;;12.70;64.70;;;;;;5064968;28;20037;-60
2023/10/02 03:59:57;;;;;;;12.40;5.80;;;12.70;64.80;;;;;;5063635;28;20495;-61
2023/10/02 04:02:30;;;;;;;12.05;5.95;;;12.70;64.80;;;;;;5064311;28;20526;-61
2023/10/02 04:04:56;;;;;;;13.75;5.88;;;12.70;64.90;;;;;;5062994;28;20026;-60
2023/10/02 04:07:24;;;;;;;18.17;6.72;;;12.70;65.60;;;;;;5060763;28;20040;-60
2023/10/02 04:09:51;;;;;;;11.65;5.70;;;12.70;64.90;;;;;;5063695;28;20020;-61
2023/10/02 04:12:22;;;;;;;13.70;5.50;;;12.70;65.00;;;;;;5059278;28;20056;-60
2023/10/02 04:14:48;;;;;;;16.85;6.60;;;12.60;65.00;;;;;;5065120;28;20116;-60
2023/10/02 04:17:20;;;;;;;13.15;6.10;;;12.60;65.00;;;;;;5071029;28;20734;-60
2023/10/02 04:19:49;;;;;;;12.32;5.43;;;12.60;65.00;;;;;;5064431;28;20024;-60
2023/10/02 04:22:25;;;;;;;12.55;5.63;;;12.60;64.90;;;;;;5070043;28;20039;-61
2023/10/02 04:25:03;;;;;;;11.18;5.88;;;12.60;64.90;;;;;;5054190;28;20396;-61
2023/10/02 04:32:42;;;;;;;12.85;5.53;;;12.50;65.10;;;;;;5066434;28;20111;-60
2023/10/02 04:35:57;;;;;;;13.40;6.45;;;12.50;65.10;;;;;;5069603;28;20016;-63
2023/10/02 04:37:59;;;;;;;14.98;6.68;;;12.40;65.10;;;;;;5067326;28;20135;-59
2023/10/02 04:40:37;;;;;;;13.82;6.22;;;12.40;65.20;;;;;;5061355;28;20387;-60
2023/10/02 04:46:01;;;;;;;12.65;6.78;;;12.40;65.50;;;;;;5008261;28;20051;-61
2023/10/02 04:48:38;;;;;;;13.07;6.90;;;12.40;65.70;;;;;;5064972;28;20070;-61
2023/10/02 04:51:08;;;;;;;13.75;6.63;;;12.30;65.40;;;;;;5070128;28;20028;-61
2023/10/02 04:53:39;;;;;;;16.83;7.15;;;12.30;65.50;;;;;;5068859;28;20483;-61
2023/10/02 04:56:21;;;;;;;12.90;6.50;;;12.30;65.70;;;;;;5059620;28;20057;-60
2023/10/02 04:58:51;;;;;;;14.80;6.45;;;12.30;65.70;;;;;;5058078;28;20020;-60
2023/10/02 05:01:41;;;;;;;14.63;6.35;;;12.30;65.80;;;;;;5064270;28;20552;-60
2023/10/02 05:04:07;;;;;;;13.25;5.93;;;12.30;66.50;;;;;;5056669;28;20029;-61
2023/10/02 05:11:57;;;;;;;11.10;5.53;;;12.30;65.90;;;;;;5058794;28;19958;-63
2023/10/02 05:14:28;;;;;;;13.90;6.05;;;12.20;65.00;;;;;;5067309;28;20394;-61
2023/10/02 05:17:17;;;;;;;15.07;6.22;;;12.20;65.50;;;;;;5071139;28;20029;-62
2023/10/02 05:20:07;;;;;;;14.93;5.90;;;12.20;65.50;;;;;;5070579;28;20769;-61
2023/10/02 05:22:36;;;;;;;14.68;6.10;;;12.20;65.80;;;;;;5063758;28;20040;-62
2023/10/02 05:25:07;;;;;;;11.90;6.18;;;12.20;65.70;;;;;;5064620;28;20069;-60
2023/10/02 05:27:38;;;;;;;11.10;5.80;;;12.10;65.80;;;;;;5058415;28;20036;-60
2023/10/02 05:30:23;;;;;;;13.45;5.47;;;12.10;67.00;;;;;;5060910;28;21541;-62
2023/10/02 05:32:49;;;;;;;12.00;5.68;;;12.10;66.00;;;;;;5068174;28;20028;-60
2023/10/02 05:37:45;;;;;;;14.18;6.28;;;12.20;66.30;;;;;;5060290;28;20055;-61
2023/10/02 05:45:47;;;;;;;14.32;6.10;;;12.20;66.20;;;;;;5057094;28;20033;-60
2023/10/02 05:50:56;;;;;;;11.77;5.53;;;12.20;67.10;;;;;;5052989;28;20017;-60
2023/10/02 05:53:26;;;;;;;12.35;5.93;;;12.20;66.60;;;;;;5060905;28;20100;-61
2023/10/02 05:58:41;;;;;;;13.40;5.82;;;12.30;66.70;;;;;;5063569;28;20036;-60
2023/10/02 06:01:25;;;;;;;11.35;5.68;;;12.30;66.70;;;;;;5063802;28;20044;-61
2023/10/02 06:03:56;;;;;;;13.52;7.05;;;12.30;66.80;;;;;;5063704;28;20024;-61
2023/10/02 06:06:23;;;;;;;16.38;6.97;;;12.40;66.80;;;;;;5050170;28;20123;-62
2023/10/02 06:09:00;;;;;;;21.33;7.25;;;12.40;66.70;;;;;;5055959;28;20051;-61
2023/10/02 06:11:27;;;;;;;13.10;5.80;;;12.50;67.00;;;;;;5062394;28;20078;-61
2023/10/02 06:13:57;;;;;;;11.52;6.15;;;12.50;66.70;;;;;;5060993;28;20048;-61
2023/10/02 06:16:29;;;;;;;15.93;6.25;;;12.60;66.80;;;;;;5050415;28;20037;-61
2023/10/02 06:19:02;;;;;;;13.38;6.45;;;12.60;67.20;;;;;;5058265;28;20028;-61
2023/10/02 06:21:31;;;;;;;13.75;5.95;;;12.70;67.00;;;;;;5062749;28;20464;-61
2023/10/02 06:23:58;;;;;;;13.68;6.13;;;12.80;67.20;;;;;;5060023;28;20029;-61
2023/10/02 06:26:46;;;;;;;11.90;5.88;;;12.80;67.10;;;;;;5059574;28;20021;-60
2023/10/02 06:29:20;;;;;;;14.13;6.07;;;12.90;67.10;;;;;;5060181;28;20376;-63
2023/10/02 06:31:51;;;;;;;12.25;6.07;;;12.90;67.00;;;;;;5058885;28;20044;-60
2023/10/02 06:34:19;;;;;;;18.50;7.03;;;13.00;67.10;;;;;;5054250;28;20037;-62
2023/10/02 06:36:48;;;;;;;19.55;9.10;;;13.10;67.20;;;;;;5068056;28;20033;-60
2023/10/02 06:39:21;;;;;;;21.10;9.70;;;13.10;67.30;;;;;;5064415;28;20043;-60
2023/10/02 06:41:47;;;;;;;18.58;8.95;;;13.30;67.30;;;;;;5062503;28;20025;-60
2023/10/02 06:44:16;;;;;;;18.63;8.60;;;13.30;67.20;;;;;;5068564;28;20111;-60
2023/10/02 06:46:55;;;;;;;17.52;7.90;;;13.40;67.20;;;;;;5010387;28;20541;-61
2023/10/02 06:49:21;;;;;;;17.83;8.10;;;13.50;67.20;;;;;;5062399;28;20040;-60
2023/10/02 06:51:50;;;;;;;16.50;8.18;;;13.50;67.20;;;;;;5069466;28;20069;-61
2023/10/02 06:54:19;;;;;;;16.63;8.02;;;13.60;67.60;;;;;;5053258;28;20387;-62
2023/10/02 06:56:46;;;;;;;15.07;6.97;;;13.70;67.70;;;;;;5058170;28;20065;-61
2023/10/02 06:59:12;;;;;;;16.73;7.57;;;13.80;67.50;;;;;;5069733;28;20032;-60
2023/10/02 07:02:01;;;;;;;16.73;7.63;;;13.90;67.50;;;;;;5067906;28;20024;-62
2023/10/02 07:04:29;;;;;;;12.70;6.63;;;14.00;67.50;;;;;;5056498;28;20040;-60
2023/10/02 07:07:02;;;;;;;18.60;7.70;;;14.20;67.40;;;;;;5058270;28;20033;-62
2023/10/02 07:09:35;;;;;;;17.40;7.32;;;14.30;67.40;;;;;;5065284;28;20079;-60
2023/10/02 07:12:08;;;;;;;50.95;29.13;;;14.40;67.20;;;;;;5064942;28;20068;-61
2023/10/02 07:14:37;;;;;;;42.38;24.45;;;14.60;67.20;;;;;;5064443;28;20040;-61
2023/10/02 07:17:16;;;;;;;29.70;15.60;;;14.70;67.20;;;;;;5063948;28;20047;-61
2023/10/02 07:19:48;;;;;;;28.58;18.98;;;14.80;67.20;;;;;;5064066;28;20020;-62
2023/10/02 07:22:24;;;;;;;21.77;10.73;;;15.00;67.10;;;;;;5068393;28;20540;-61
2023/10/02 07:24:55;;;;;;;17.00;7.95;;;15.20;66.90;;;;;;5061722;28;20423;-60
2023/10/02 07:27:28;;;;;;;12.38;6.75;;;15.30;66.60;;;;;;5054950;28;20079;-61
2023/10/02 07:29:55;;;;;;;18.00;8.50;;;15.40;66.40;;;;;;5055980;28;20107;-63
2023/10/02 07:32:29;;;;;;;17.60;8.18;;;15.50;66.20;;;;;;5056162;28;20017;-61
2023/10/02 07:34:55;;;;;;;18.20;8.18;;;15.70;66.40;;;;;;5061150;28;20187;-60
2023/10/02 07:37:24;;;;;;;15.10;7.13;;;15.80;66.10;;;;;;5047720;28;20033;-62
2023/10/02 07:39:56;;;;;;;16.70;7.90;;;16.00;65.90;;;;;;5055635;28;20028;-61
2023/10/02 07:42:29;;;;;;;18.60;7.63;;;16.10;65.60;;;;;;5053873;28;20021;-61
2023/10/02 07:45:11;;;;;;;18.30;7.88;;;16.20;65.50;;;;;;5068696;28;20120;-60
2023/10/02 07:47:39;;;;;;;17.00;8.45;;;16.30;65.20;;;;;;5046330;28;20114;-62
2023/10/02 07:50:23;;;;;;;19.17;9.38;;;16.50;65.20;;;;;;5060700;28;20025;-61
2023/10/02 07:52:49;;;;;;;20.43;9.67;;;16.60;65.30;;;;;;5062604;28;20034;-61
2023/10/02 07:55:15;;;;;;;18.55;7.93;;;16.80;65.10;;;;;;5051713;28;20037;-61
2023/10/02 07:57:41;;;;;;;15.98;8.48;;;16.90;64.90;;;;;;5052147;28;20078;-61
2023/10/02 08:00:33;;;;;;;24.95;10.32;;;17.00;64.70;;;;;;5067336;28;20048;-61
2023/10/02 08:02:54;;;;;;;23.33;10.48;;;17.20;64.60;;;;;;5055492;28;20032;-61
2023/10/02 08:05:20;;;;;;;21.67;9.82;;;17.40;64.40;;;;;;5055981;28;20039;-61
2023/10/02 08:07:46;;;;;;;18.58;9.68;;;17.40;64.10;;;;;;5062275;28;20032;-61
2023/10/02 08:10:15;;;;;;;21.48;9.40;;;17.60;64.00;;;;;;5061032;28;20448;-61
2023/10/02 08:12:54;;;;;;;19.98;9.52;;;17.70;63.80;;;;;;5063244;28;20135;-61
2023/10/02 08:15:26;;;;;;;18.75;9.93;;;17.80;63.80;;;;;;5057131;28;20490;-60
2023/10/02 08:20:24;;;;;;;19.73;9.82;;;18.10;63.30;;;;;;5064436;28;20029;-60
2023/10/02 08:22:51;;;;;;;17.38;9.02;;;18.20;63.00;;;;;;5058700;28;20024;-61
2023/10/02 08:25:17;;;;;;;16.55;8.38;;;18.30;63.10;;;;;;5065913;28;20409;-61
2023/10/02 08:27:58;;;;;;;22.23;9.82;;;18.50;63.00;;;;;;5067211;28;20024;-60
2023/10/02 08:30:31;;;;;;;19.88;9.52;;;18.60;62.60;;;;;;5065482;28;20029;-60
2023/10/02 08:33:06;;;;;;;20.90;8.85;;;18.70;62.40;;;;;;5044804;28;20151;-62
2023/10/02 08:35:41;;;;;;;23.45;9.25;;;18.80;62.20;;;;;;5058855;28;20032;-61
2023/10/02 08:38:07;;;;;;;19.30;9.38;;;18.90;61.80;;;;;;5054434;28;20094;-61
2023/10/02 08:40:40;;;;;;;23.75;9.32;;;19.00;61.80;;;;;;5066276;28;20024;-61
2023/10/02 08:43:06;;;;;;;23.00;8.98;;;19.10;61.70;;;;;;5064530;28;20086;-62
2023/10/02 08:45:33;;;;;;;22.05;9.55;;;19.20;61.70;;;;;;4963905;28;20036;-61
2023/10/02 08:48:07;;;;;;;23.13;10.75;;;19.30;61.60;;;;;;5066133;28;20045;-61
2023/10/02 08:50:34;;;;;;;22.13;9.60;;;19.50;61.70;;;;;;5060446;28;20430;-61
2023/10/02 08:53:04;;;;;;;21.63;9.95;;;19.60;61.60;;;;;;5069126;28;20033;-61
2023/10/02 08:55:40;;;;;;;21.55;10.25;;;19.70;61.40;;;;;;5069979;28;20098;-62
2023/10/02 08:58:16;;;;;;;20.77;9.52;;;19.90;61.20;;;;;;5069257;28;20041;-62
2023/10/02 09:03:43;;;;;;;22.45;9.05;;;20.20;60.60;;;;;;5065097;28;20032;-61
2023/10/02 09:06:30;;;;;;;20.70;9.85;;;20.40;60.50;;;;;;5057432;28;20082;-62
2023/10/02 09:12:03;;;;;;;24.35;9.05;;;20.70;59.80;;;;;;5033211;28;20116;-62
2023/10/02 09:17:19;;;;;;;26.35;10.07;;;20.90;59.40;;;;;;5041484;28;20033;-62
2023/10/02 09:20:07;;;;;;;21.42;10.98;;;21.10;59.50;;;;;;5035207;28;20025;-62
2023/10/02 09:22:38;;;;;;;22.70;10.68;;;21.20;59.30;;;;;;5040621;28;20029;-62
2023/10/02 09:25:09;;;;;;;24.33;11.50;;;21.40;59.30;;;;;;5039682;28;20021;-61
2023/10/02 09:27:41;;;;;;;27.27;10.75;;;21.50;58.90;;;;;;5034445;28;20049;-62
2023/10/02 09:30:21;;;;;;;24.75;10.43;;;21.60;58.90;;;;;;5039991;28;20056;-61
2023/10/02 09:32:51;;;;;;;22.60;10.95;;;21.80;59.00;;;;;;5043853;28;20029;-63
2023/10/02 09:35:29;;;;;;;23.95;11.75;;;22.00;58.50;;;;;;5040860;28;20029;-61
2023/10/02 09:38:04;;;;;;;28.42;11.93;;;22.10;58.40;;;;;;5034864;28;20124;-63
2023/10/02 09:43:35;;;;;;;21.45;11.43;;;22.50;58.00;;;;;;5055045;28;20075;-63
2023/10/02 09:46:06;;;;;;;25.40;12.18;;;22.60;57.70;;;;;;4965172;28;20029;-62
2023/10/02 09:51:30;;;;;;;21.50;10.98;;;22.90;57.10;;;;;;5055486;28;20111;-62
2023/10/02 09:54:17;;;;;;;19.90;10.63;;;23.00;57.00;;;;;;5071582;28;20407;-62
2023/10/02 09:57:05;;;;;;;25.30;11.43;;;23.10;56.70;;;;;;5063662;28;20025;-62
2023/10/02 09:59:57;;;;;;;23.92;11.82;;;23.30;56.30;;;;;;5070758;28;20016;-62
2023/10/02 10:05:02;;;;;;;27.15;11.70;;;23.50;56.20;;;;;;5063248;28;20024;-61
2023/10/02 10:07:46;;;;;;;23.63;10.98;;;23.60;55.30;;;;;;5088366;28;20025;-63
2023/10/02 10:10:28;;;;;;;;;;;23.70;55.30;;;;;;5061011;28;20024;-61
2023/10/02 10:13:09;;;;;;;20.45;9.82;;;23.90;56.00;;;;;;5059837;28;19917;-62
2023/10/02 10:15:37;;;;;;;26.27;12.05;;;24.00;55.50;;;;;;5065314;28;20077;-62
2023/10/02 10:18:12;;;;;;;21.23;11.48;;;24.10;55.40;;;;;;5069953;28;20113;-62
2023/10/02 10:20:38;;;;;;;19.15;10.60;;;24.20;54.90;;;;;;5056048;28;20228;-63
2023/10/02 10:23:41;;;;;;;25.77;11.43;;;24.30;54.60;;;;;;5067324;28;20020;-61
2023/10/02 10:26:38;;;;;;;20.50;11.70;;;24.40;54.40;;;;;;5061652;28;20048;-61
2023/10/02 10:29:41;;;;;;;22.65;10.75;;;24.50;54.10;;;;;;5057628;28;20047;-62
2023/10/02 10:32:23;;;;;;;24.90;11.48;;;24.60;54.20;;;;;;5059831;28;20221;-62
2023/10/02 10:35:17;;;;;;;21.75;10.82;;;24.70;53.80;;;;;;5071462;28;20020;-62
2023/10/02 10:37:47;;;;;;;21.57;11.50;;;24.80;54.20;;;;;;5064590;28;20464;-60
2023/10/02 10:40:44;;;;;;;25.05;11.57;;;25.00;54.40;;;;;;5065124;28;20024;-63
2023/10/02 10:43:14;;;;;;;22.23;12.38;;;25.10;53.40;;;;;;5056503;28;20041;-62
2023/10/02 10:45:40;;;;;;;23.17;11.45;;;25.30;54.00;;;;;;5008024;28;20020;-63
2023/10/02 10:48:26;;;;;;;27.10;11.93;;;25.30;53.80;;;;;;5062802;28;20038;-63
2023/10/02 10:51:06;;;;;;;25.83;12.18;;;25.50;52.60;;;;;;5057776;28;20033;-62
2023/10/02 10:53:41;;;;;;;28.92;12.32;;;25.60;52.90;;;;;;5062576;28;20034;-62
2023/10/02 10:56:19;;;;;;;23.30;12.82;;;25.80;52.80;;;;;;5068426;28;20039;-63
2023/10/02 10:58:53;;;;;;;27.23;13.02;;;25.80;53.40;;;;;;5059455;28;20085;-62
2023/10/02 11:01:22;;;;;;;28.67;13.60;;;26.00;52.10;;;;;;5060997;28;20028;-61
2023/10/02 11:03:58;;;;;;;25.40;13.40;;;26.10;52.20;;;;;;5064375;28;20056;-62
2023/10/02 11:06:24;;;;;;;33.45;14.57;;;26.20;51.20;;;;;;5068417;28;20043;-61
2023/10/02 11:09:12;;;;;;;27.67;14.82;;;26.20;51.90;;;;;;5073740;28;20123;-61
2023/10/02 11:11:49;;;;;;;28.55;14.40;;;26.30;51.10;;;;;;5071045;28;20128;-62
2023/10/02 11:14:21;;;;;;;33.13;14.50;;;26.40;51.60;;;;;;5063328;28;20045;-61
2023/10/02 11:16:57;;;;;;;33.35;15.45;;;26.50;51.50;;;;;;5062448;28;20020;-62
2023/10/02 11:19:25;;;;;;;28.33;14.18;;;26.60;50.70;;;;;;5070570;28;20040;-62
2023/10/02 11:22:15;;;;;;;35.80;14.60;;;26.80;51.10;;;;;;5067789;28;20352;-62
2023/10/02 11:24:42;;;;;;;28.70;14.52;;;26.80;51.40;;;;;;5063694;28;20094;-62
2023/10/02 11:27:11;;;;;;;31.02;13.48;;;26.90;51.10;;;;;;5066598;28;20071;-62
2023/10/02 11:29:41;;;;;;;35.55;17.30;;;27.00;51.00;;;;;;5067577;28;20395;-62
2023/10/02 11:32:19;;;;;;;40.10;16.73;;;27.10;50.30;;;;;;5061514;28;20060;-61
2023/10/02 11:34:58;;;;;;;31.48;16.13;;;27.20;50.20;;;;;;5066733;28;20017;-62
2023/10/02 11:37:26;;;;;;;38.97;17.92;;;27.30;50.40;;;;;;5060551;28;20546;-63
2023/10/02 11:39:53;;;;;;;35.60;16.67;;;27.50;50.30;;;;;;5059170;28;20028;-63
2023/10/02 11:42:19;;;;;;;36.25;17.38;;;27.60;49.90;;;;;;5059395;28;20027;-61
2023/10/02 11:44:46;;;;;;;34.85;17.25;;;27.70;49.80;;;;;;5006976;28;20032;-63
2023/10/02 11:47:12;;;;;;;29.90;16.63;;;27.80;49.40;;;;;;5065982;28;20470;-62
2023/10/02 11:49:38;;;;;;;31.73;16.77;;;28.00;48.90;;;;;;5058594;28;20051;-62
2023/10/02 11:52:04;;;;;;;38.00;17.15;;;28.00;48.40;;;;;;5063056;28;20020;-61
2023/10/02 11:54:36;;;;;;;36.88;18.65;;;28.10;48.20;;;;;;5054195;28;20075;-61
2023/10/02 11:57:08;;;;;;;35.88;18.00;;;28.20;48.00;;;;;;5055990;28;20059;-63
2023/10/02 11:59:41;;;;;;;39.70;18.73;;;28.30;47.90;;;;;;5061989;28;20428;-62
2023/10/02 12:02:10;;;;;;;38.47;18.53;;;28.40;48.40;;;;;;5054438;28;20032;-63
2023/10/02 12:04:39;;;;;;;41.90;17.80;;;28.50;47.50;;;;;;5059945;28;20289;-62
2023/10/02 12:07:08;;;;;;;35.28;18.38;;;28.60;47.30;;;;;;5066955;28;20522;-62
2023/10/02 12:09:34;;;;;;;39.40;18.15;;;28.70;46.70;;;;;;5063651;28;20056;-62
2023/10/02 12:12:00;;;;;;;38.72;19.20;;;28.70;46.70;;;;;;5054961;28;20114;-63
2023/10/02 12:14:27;;;;;;;41.33;20.55;;;28.80;45.90;;;;;;5068638;28;20036;-62
2023/10/02 12:16:57;;;;;;;48.03;22.13;;;28.80;45.20;;;;;;5064931;28;20029;-62
2023/10/02 12:19:24;;;;;;;40.25;20.50;;;29.00;44.30;;;;;;5060182;28;20938;-63
2023/10/02 12:21:51;;;;;;;36.67;18.83;;;29.00;44.80;;;;;;5064489;28;20095;-63
2023/10/02 12:24:17;;;;;;;36.50;18.75;;;29.00;45.50;;;;;;5053626;28;20036;-62
2023/10/02 12:26:43;;;;;;;37.60;18.33;;;29.10;45.30;;;;;;5063795;28;20033;-63
2023/10/02 12:29:12;;;;;;;35.00;16.17;;;29.10;45.50;;;;;;5060072;28;20040;-62
2023/10/02 12:31:38;;;;;;;37.08;18.17;;;29.20;45.50;;;;;;5059627;28;20058;-62
2023/10/02 12:34:05;;;;;;;33.65;17.67;;;29.30;45.00;;;;;;5056289;28;20025;-62
2023/10/02 12:36:31;;;;;;;32.70;17.10;;;29.40;45.00;;;;;;5056592;28;20144;-62
2023/10/02 12:39:00;;;;;;;33.63;17.88;;;29.50;45.20;;;;;;5057716;28;20468;-61
2023/10/02 12:41:28;;;;;;;29.20;16.70;;;29.50;44.80;;;;;;5060376;28;20450;-62
2023/10/02 12:43:56;;;;;;;31.73;15.95;;;29.60;45.10;;;;;;5060568;28;20115;-62
2023/10/02 12:46:27;;;;;;;33.08;17.88;;;29.60;45.00;;;;;;4971537;28;20043;-62
2023/10/02 12:48:57;;;;;;;35.65;17.13;;;29.70;44.90;;;;;;5054182;28;20047;-62
2023/10/02 12:51:25;;;;;;;37.70;18.45;;;29.70;44.60;;;;;;5064585;28;20016;-62
2023/10/02 12:53:51;;;;;;;34.30;17.75;;;29.80;44.20;;;;;;5063889;28;20024;-63
2023/10/02 12:56:21;;;;;;;33.83;17.38;;;29.90;44.40;;;;;;5062961;28;20025;-61
2023/10/02 12:58:53;;;;;;;42.00;18.60;;;29.90;44.20;;;;;;5054897;28;20021;-63
2023/10/02 13:01:21;;;;;;;41.78;19.13;;;30.10;43.00;;;;;;5063869;28;20024;-62
2023/10/02 13:03:46;;;;;;;35.88;19.48;;;30.20;43.40;;;;;;5062479;28;20347;-63
2023/10/02 13:06:13;;;;;;;37.92;19.98;;;30.20;42.70;;;;;;5064211;28;20204;-61
2023/10/02 13:08:43;;;;;;;43.05;19.88;;;30.30;42.20;;;;;;5061584;28;20513;-63
2023/10/02 13:11:12;;;;;;;45.97;18.33;;;30.30;41.90;;;;;;5059208;28;20111;-63
2023/10/02 13:13:46;;;;;;;34.05;18.15;;;30.30;42.10;;;;;;5055955;28;20041;-63
2023/10/02 13:16:15;;;;;;;46.72;19.42;;;30.40;42.60;;;;;;5062627;28;20486;-62
2023/10/02 13:18:43;;;;;;;38.05;19.08;;;30.40;42.50;;;;;;5064302;28;20055;-63
2023/10/02 13:21:10;;;;;;;37.05;19.33;;;30.50;41.50;;;;;;5068737;28;20375;-63
2023/10/02 13:23:36;;;;;;;38.08;19.60;;;30.70;40.90;;;;;;5060865;28;20036;-63
2023/10/02 13:26:08;;;;;;;39.55;19.88;;;30.70;40.60;;;;;;5063269;28;20471;-63
2023/10/02 13:28:34;;;;;;;31.35;18.38;;;30.80;40.70;;;;;;5057240;28;20127;-61
2023/10/02 13:31:13;;;;;;;40.42;20.60;;;31.00;41.50;;;;;;5057775;28;20523;-62
2023/10/02 13:33:51;;;;;;;32.17;18.13;;;31.00;40.20;;;;;;5050601;28;20140;-63
2023/10/02 13:36:22;;;;;;;41.75;20.88;;;31.10;41.00;;;;;;5053225;28;20452;-63
2023/10/02 13:38:58;;;;;;;38.63;19.70;;;31.20;40.70;;;;;;5050452;28;20166;-62
2023/10/02 13:41:26;;;;;;;40.38;19.25;;;31.30;39.80;;;;;;5054646;28;20368;-62
2023/10/02 13:43:54;;;;;;;42.88;20.45;;;31.30;40.40;;;;;;5063791;28;20025;-62
2023/10/02 13:46:21;;;;;;;35.22;18.85;;;31.40;39.90;;;;;;4981039;28;20051;-62
2023/10/02 13:48:53;;;;;;;41.60;20.60;;;31.50;39.90;;;;;;5058288;28;20391;-64
2023/10/02 13:51:20;;;;;;;39.95;20.63;;;31.50;39.10;;;;;;5059798;28;20028;-63
2023/10/02 13:53:48;;;;;;;42.72;20.67;;;31.60;39.40;;;;;;5062987;28;20483;-62
2023/10/02 13:56:19;;;;;;;37.90;20.10;;;31.70;39.50;;;;;;5061571;28;20031;-62
2023/10/02 13:58:50;;;;;;;44.83;22.45;;;31.80;39.60;;;;;;5063750;28;20028;-64